Ride Results

Wilga (16-03-2002)
Ride distance: 80.0 km

Outcomes - Wilga (16-03-2002)
Division No. of Entries Retired / DNE Completed Withdrawn Ineligible V/O Percentage Completed
HW 9 - 6 1 - 2 66.67%
MW 18 - 10 3 - 5 55.56%
LW 10 - 8 - - 2 80.00%
JN 1 - 1 - - - 100.00%
Totals 38 - 25 4 - 9 65.79%
Results - Wilga (16-03-2002)
No. Rider Horse Place Time Leg Speeds Total
Km/Hr
H/R bpm
Heavyweight
105 Bruce Scott Dinewani Limited Edition 1 6:15:00 13.1, 12.4 12.80 31, 40, 48 (Avg:44)
132 David Riches Yaldon Gwai Sadiiq 2 6:31:00 13.0, 11.5 12.28 32, 37, 54 (Avg:45)
128 Di Rayner Karumba Naomi 3 (BC) 7:20:00 12.3, 9.7 10.91 35, 42, 56 (Avg:49)
130 Keith Davenport Balgownie Berk 4 7:40:00 12.9, 8.7 10.43 38, 46, 44 (Avg:45)
115 Michael Wood Yaldon Nashab 5 7:41:00 11.4, 9.5 10.41 33, 40, 51 (Avg:45)
118 Patrick Burns Isham Calligh 6 8:32:00 10.8, 8.2 9.38 34, 38, 45 (Avg:41)
117 Richard Jeggo Maralinga Fanfare Metabolics L2 0:00:00 14.5, 11.7 - 33, 41, 54 (Avg:47)
108 Ross McCamish Paradise Valley Perfection Lame L1 0:00:00 14.4 - 30, 49 (Avg:49)
101 Craig Adlam Bay Merlin Withdrawn P/R 0:00:00 - - 32
Middleweight
113 Anton Reid Tora Jem 1 (BC) 5:13:00 17.3, 13.7 15.34 34, 37, 39 (Avg:38)
106 Jenny McCamish Melara Najma 2 5:40:00 14.4, 13.7 14.12 29, 39, 54 (Avg:46)
126 Tania Foster Kularin Shartarn 3 5:43:00 13.4, 14.5 13.99 30, 39, 46 (Avg:42)
129 Alan Stevenson Azarna 4 5:59:00 13.4, 13.3 13.37 33, 40, 46 (Avg:43)
102 Harry O'Brien Westhope Park Shariq 5 6:01:00 13.3, 13.2 13.30 30, 37, 45 (Avg:41)
139 Otto Van Kampen Arabika Pinelli 6 6:15:00 13.2, 12.3 12.80 36, 44, 59 (Avg:51)
120 Frances Overheu Rumpole 7 6:55:00 13.7, 9.9 11.57 28, 41, 44 (Avg:42)
127 Michelle Trigwell Karumba Topaz 8 7:20:00 12.3, 9.7 10.91 31, 38, 50 (Avg:44)
133 Richard Summerfield Tora Azzan 9 7:56:00 11.5, 8.9 10.08 28, 32, 36 (Avg:34)
119 Hayley Green Yaldon Amat 10 8:32:00 10.8, 8.2 9.38 32, 49, 0 (Avg:24)
136 Tony Duffy Aranita Padashar Lame L2 0:00:00 12.8, 11.3 - 32, 37, 46 (Avg:41)
111 Baz O'Driscoll Hillbrae Harry Lame L2 0:00:00 10.5, 9.3 - 38, 35, 0 (Avg:17)
116 Pauline Birnie Robmurty Develin Lame L1 0:00:00 10.8 - 33, 37 (Avg:37)
137 Chris Boocock Noran Chevaz Lame L1 0:00:00 17.3 - 38, 0 (Avg:0)
122 Joan Gill Aqua Renee Withdrawn L1 0:00:00 - - 35, 36 (Avg:36)
107 Michelle Lewis Yeoman Zadaya Lame L1 0:00:00 13.1 - 31, 43 (Avg:43)
138 Paul Willmott Maralinga Du'baye Withdrawn L1 0:00:00 - - 32, 34 (Avg:34)
100 Heath Yeomans Kwani Withdrawn L1 0:00:00 - - 24, 32 (Avg:32)
Lightweight
104 Kate Jenour Wealdbarns Flame 1 (BC) 6:01:00 13.3, 13.2 13.30 37, 40, 41 (Avg:40)
123 Linda Dix Ebony Rose 2 6:03:00 15.4, 11.5 13.22 37, 39, 49 (Avg:44)
131 Stephanie Cornu Arbour Grange Salaam 3 6:07:00 14.3, 11.9 13.08 36, 40, 50 (Avg:45)
121 Sue House Chimanimani 3 6:07:00 14.3, 11.9 13.08 32, 34, 47 (Avg:40)
110 Rebecca Wicks Tanderra Duchess 5 6:55:00 13.7, 9.9 11.57 36, 44, 50 (Avg:47)
114 Faye Crockford Rabiana Summer Rain 6 7:34:00 12.7, 9.0 10.57 34, 48, 53 (Avg:50)
134 Kerryn Willing Nangita Morning Mist 7 7:43:00 12.7, 8.7 10.37 40, 45, 46 (Avg:45)
125 Cassie Mulcahy Tanderra Saphire 8 7:56:00 11.5, 8.9 10.08 31, 37, 52 (Avg:44)
135 Tanya Hall Altan Park Shadai Lame L2 0:00:00 12.8, 11.3 - 26, 33, 40 (Avg:36)
109 Brenda Blucher Syrashar Metabolics L1 0:00:00 13.7 - 40, 46 (Avg:46)
Junior
124 Amanda Colli Robert 1 7:35:00 11.4, 9.7 10.55 36, 42, 48 (Avg:45)